createdAt,value
2022-11-16T00:01:23.087Z,0.7
2022-11-16T00:06:23.097Z,0.8
2022-11-16T00:11:23.096Z,0.8
2022-11-16T00:16:23.092Z,0.8
2022-11-16T00:21:23.101Z,0.6
2022-11-16T00:26:23.101Z,0.9
2022-11-16T00:31:23.106Z,0.8
2022-11-16T00:36:23.102Z,0.8
2022-11-16T00:41:23.102Z,0.6
2022-11-16T00:46:23.115Z,0.9
2022-11-16T00:51:23.109Z,0.9
2022-11-16T00:56:23.112Z,0.8
2022-11-16T01:01:23.182Z,0.6
2022-11-16T01:06:23.120Z,0.7
2022-11-16T01:11:23.127Z,0.7
2022-11-16T01:16:23.118Z,0.6
2022-11-16T01:21:23.121Z,1.0
2022-11-16T01:26:23.124Z,0.9
2022-11-16T01:31:23.125Z,0.7
2022-11-16T01:36:23.121Z,0.9
2022-11-16T01:41:23.131Z,0.8
2022-11-16T01:46:23.153Z,0.8
2022-11-16T01:51:23.128Z,0.8
2022-11-16T01:56:23.132Z,0.6
2022-11-16T02:01:23.191Z,0.8
2022-11-16T02:06:23.139Z,0.8
2022-11-16T02:11:23.152Z,0.7
2022-11-16T02:16:23.146Z,0.7
2022-11-16T02:21:23.151Z,0.8
2022-11-16T02:26:23.148Z,0.7
2022-11-16T02:31:23.151Z,0.6
2022-11-16T02:36:23.146Z,0.6
2022-11-16T02:41:23.152Z,0.7
2022-11-16T02:46:23.156Z,0.8
2022-11-16T02:51:23.153Z,0.7
2022-11-16T02:56:23.161Z,0.8
2022-11-16T03:01:23.252Z,0.7
2022-11-16T03:06:23.162Z,0.7
2022-11-16T03:11:23.165Z,0.6
2022-11-16T03:16:23.168Z,0.7
2022-11-16T03:21:23.169Z,0.7
2022-11-16T03:26:23.167Z,0.8
2022-11-16T03:31:23.174Z,0.8
2022-11-16T03:36:23.172Z,0.9
2022-11-16T03:41:23.176Z,0.6
2022-11-16T03:46:23.180Z,0.8
2022-11-16T03:51:23.186Z,0.7
2022-11-16T03:56:23.197Z,0.8
2022-11-16T04:01:23.254Z,0.6
2022-11-16T04:06:23.186Z,0.7
2022-11-16T04:11:23.188Z,0.9
2022-11-16T04:16:23.192Z,0.6
2022-11-16T04:21:23.206Z,0.7
2022-11-16T04:26:23.230Z,0.7
2022-11-16T04:31:23.200Z,0.7
2022-11-16T04:36:23.196Z,0.7
2022-11-16T04:41:23.203Z,0.6
2022-11-16T04:46:23.214Z,0.8
2022-11-16T04:51:23.212Z,0.6
2022-11-16T04:56:23.208Z,0.6
2022-11-16T05:01:23.234Z,0.5
2022-11-16T05:06:23.215Z,0.5
2022-11-16T05:11:23.213Z,0.5
2022-11-16T05:16:23.216Z,0.6
2022-11-16T05:21:23.222Z,0.6
2022-11-16T05:26:23.225Z,0.5
2022-11-16T05:31:23.221Z,0.5
2022-11-16T05:36:23.225Z,0.4
2022-11-16T05:41:23.229Z,0.4
2022-11-16T05:46:23.233Z,0.7
2022-11-16T05:51:23.235Z,0.4
2022-11-16T05:56:23.392Z,0.4
2022-11-16T06:01:23.235Z,0.5
2022-11-16T06:11:23.249Z,0.6
2022-11-16T06:21:23.244Z,0.7
2022-11-16T06:26:23.247Z,0.5
2022-11-16T06:31:23.252Z,0.5
2022-11-16T06:36:23.257Z,0.5
2022-11-16T18:27:19.546Z,1.4
2022-11-16T18:32:19.456Z,2.0
2022-11-16T18:37:19.460Z,1.5
2022-11-16T18:42:19.453Z,1.8
2022-11-16T18:47:19.458Z,1.9
2022-11-16T18:52:19.454Z,2.2
2022-11-16T18:57:19.464Z,2.2
2022-11-16T19:02:19.457Z,2.6
2022-11-16T19:07:19.503Z,2.1
2022-11-16T19:12:19.451Z,3.0
2022-11-16T19:17:19.563Z,2.1
2022-11-16T19:22:19.555Z,5.3
2022-11-16T19:27:19.567Z,2.5
2022-11-16T19:32:19.465Z,2.8
2022-11-16T19:37:19.565Z,2.0
2022-11-16T19:42:19.474Z,1.8
2022-11-16T19:47:19.567Z,1.8
2022-11-16T19:52:19.572Z,2.0
2022-11-16T19:57:19.573Z,2.0
2022-11-16T20:02:19.572Z,1.7
2022-11-16T20:07:19.639Z,2.4
2022-11-16T20:12:19.572Z,1.8
2022-11-16T20:17:19.584Z,2.4
2022-11-16T20:22:19.590Z,2.0
2022-11-16T20:27:19.582Z,2.6
2022-11-16T20:32:19.585Z,1.7
2022-11-16T20:37:19.485Z,1.9
2022-11-16T20:42:19.595Z,1.8
2022-11-16T20:47:19.495Z,1.5
2022-11-16T20:52:19.587Z,2.2
2022-11-16T20:57:19.493Z,2.0
2022-11-16T21:02:19.496Z,2.1
2022-11-16T21:07:19.589Z,1.9
2022-11-16T21:12:19.594Z,2.2
2022-11-16T21:17:19.618Z,1.9
2022-11-16T21:22:19.600Z,2.3
2022-11-16T21:27:19.602Z,2.0
2022-11-16T21:32:19.605Z,1.8
2022-11-16T21:37:19.615Z,1.9
2022-11-16T21:42:19.504Z,2.1
2022-11-16T21:47:21.101Z,1.9
2022-11-16T21:52:19.621Z,2.5
2022-11-16T21:57:19.623Z,2.6
2022-11-16T22:02:19.616Z,2.5
2022-11-16T22:07:19.607Z,2.0
2022-11-16T22:12:19.523Z,2.0
2022-11-16T22:17:19.525Z,2.4
2022-11-16T22:22:19.521Z,2.2
2022-11-16T22:27:19.521Z,2.2
2022-11-16T22:32:19.522Z,2.2
2022-11-16T22:37:19.524Z,2.1
2022-11-16T22:42:19.628Z,2.6
2022-11-16T22:47:19.631Z,2.7
2022-11-16T22:52:19.635Z,2.6
2022-11-16T22:57:19.631Z,2.6
2022-11-16T23:02:19.640Z,2.6
2022-11-16T23:07:19.734Z,2.9
2022-11-16T23:12:19.641Z,2.6
2022-11-16T23:17:19.539Z,3.6
2022-11-16T23:22:19.542Z,2.7
2022-11-16T23:27:19.646Z,2.9
2022-11-16T23:32:19.548Z,2.6
2022-11-16T23:37:19.653Z,3.2
2022-11-16T23:42:19.652Z,3.0
2022-11-16T23:47:19.650Z,3.3
2022-11-16T23:52:19.651Z,3.1
2022-11-16T23:57:19.651Z,3.1
